sensor_id;sensor_type;location;lat;lon;timestamp;temperature;humidity
74940;HTU21D;63505;45.226;37.908;2023-07-30T00:01:33;19.05;76.12
74940;HTU21D;63505;45.226;37.908;2023-07-30T00:03:59;19.05;76.18
74940;HTU21D;63505;45.226;37.908;2023-07-30T00:06:25;19.06;76.21
74940;HTU21D;63505;45.226;37.908;2023-07-30T00:08:51;19.06;76.28
74940;HTU21D;63505;45.226;37.908;2023-07-30T00:11:16;19.06;76.33
74940;HTU21D;63505;45.226;37.908;2023-07-30T00:13:42;19.06;76.37
74940;HTU21D;63505;45.226;37.908;2023-07-30T00:16:08;19.06;76.41
74940;HTU21D;63505;45.226;37.908;2023-07-30T00:18:34;19.03;76.45
74940;HTU21D;63505;45.226;37.908;2023-07-30T00:21:00;19.02;76.50
74940;HTU21D;63505;45.226;37.908;2023-07-30T00:23:26;18.99;76.58
74940;HTU21D;63505;45.226;37.908;2023-07-30T00:25:52;19.01;76.63
74940;HTU21D;63505;45.226;37.908;2023-07-30T00:28:18;19.00;76.69
74940;HTU21D;63505;45.226;37.908;2023-07-30T00:30:43;19.00;76.73
74940;HTU21D;63505;45.226;37.908;2023-07-30T00:33:10;19.00;76.74
74940;HTU21D;63505;45.226;37.908;2023-07-30T00:35:36;19.01;76.77
74940;HTU21D;63505;45.226;37.908;2023-07-30T00:38:02;19.00;76.83
74940;HTU21D;63505;45.226;37.908;2023-07-30T00:40:28;18.98;76.89
74940;HTU21D;63505;45.226;37.908;2023-07-30T00:42:54;18.96;76.95
74940;HTU21D;63505;45.226;37.908;2023-07-30T00:45:19;18.94;77.01
74940;HTU21D;63505;45.226;37.908;2023-07-30T00:47:46;18.93;77.11
74940;HTU21D;63505;45.226;37.908;2023-07-30T00:50:13;18.92;77.17
74940;HTU21D;63505;45.226;37.908;2023-07-30T00:52:40;18.88;77.24
74940;HTU21D;63505;45.226;37.908;2023-07-30T00:55:07;18.85;76.99
74940;HTU21D;63505;45.226;37.908;2023-07-30T00:57:34;18.81;77.07
74940;HTU21D;63505;45.226;37.908;2023-07-30T01:00:02;18.74;77.23
74940;HTU21D;63505;45.226;37.908;2023-07-30T01:02:33;18.71;77.36
74940;HTU21D;63505;45.226;37.908;2023-07-30T01:05:01;18.70;77.44
74940;HTU21D;63505;45.226;37.908;2023-07-30T01:07:27;18.68;77.50
74940;HTU21D;63505;45.226;37.908;2023-07-30T01:09:53;18.69;77.55
74940;HTU21D;63505;45.226;37.908;2023-07-30T01:12:19;18.69;77.58
74940;HTU21D;63505;45.226;37.908;2023-07-30T01:14:46;18.68;77.62
74940;HTU21D;63505;45.226;37.908;2023-07-30T01:17:13;18.67;77.64
74940;HTU21D;63505;45.226;37.908;2023-07-30T01:19:39;18.67;77.69
74940;HTU21D;63505;45.226;37.908;2023-07-30T01:22:05;18.66;77.74
74940;HTU21D;63505;45.226;37.908;2023-07-30T01:24:32;18.63;77.79
74940;HTU21D;63505;45.226;37.908;2023-07-30T01:27:04;18.62;77.87
74940;HTU21D;63505;45.226;37.908;2023-07-30T01:32:33;18.57;77.97
74940;HTU21D;63505;45.226;37.908;2023-07-30T01:35:01;18.55;78.01
74940;HTU21D;63505;45.226;37.908;2023-07-30T01:37:29;18.50;78.14
74940;HTU21D;63505;45.226;37.908;2023-07-30T01:39:56;18.41;78.30
74940;HTU21D;63505;45.226;37.908;2023-07-30T01:42:28;18.32;78.53
74940;HTU21D;63505;45.226;37.908;2023-07-30T01:44:55;18.21;78.74
74940;HTU21D;63505;45.226;37.908;2023-07-30T01:47:21;18.15;78.95
74940;HTU21D;63505;45.226;37.908;2023-07-30T01:49:46;18.18;78.97
74940;HTU21D;63505;45.226;37.908;2023-07-30T01:52:12;18.15;78.95
74940;HTU21D;63505;45.226;37.908;2023-07-30T01:54:38;18.15;78.91
74940;HTU21D;63505;45.226;37.908;2023-07-30T01:57:04;18.17;78.86
74940;HTU21D;63505;45.226;37.908;2023-07-30T01:59:30;18.17;78.85
74940;HTU21D;63505;45.226;37.908;2023-07-30T02:01:56;18.17;78.83
74940;HTU21D;63505;45.226;37.908;2023-07-30T02:04:22;18.18;78.82
74940;HTU21D;63505;45.226;37.908;2023-07-30T02:06:48;18.17;78.81
74940;HTU21D;63505;45.226;37.908;2023-07-30T02:09:14;18.18;78.79
74940;HTU21D;63505;45.226;37.908;2023-07-30T02:11:40;18.19;78.79
74940;HTU21D;63505;45.226;37.908;2023-07-30T02:14:06;18.20;78.82
74940;HTU21D;63505;45.226;37.908;2023-07-30T02:16:31;18.20;78.85
74940;HTU21D;63505;45.226;37.908;2023-07-30T02:18:57;18.20;78.86
74940;HTU21D;63505;45.226;37.908;2023-07-30T02:21:23;18.20;78.87
74940;HTU21D;63505;45.226;37.908;2023-07-30T02:23:49;18.22;78.88
74940;HTU21D;63505;45.226;37.908;2023-07-30T02:26:15;18.21;78.91
74940;HTU21D;63505;45.226;37.908;2023-07-30T02:28:41;18.18;78.90
74940;HTU21D;63505;45.226;37.908;2023-07-30T02:31:06;18.15;79.07
74940;HTU21D;63505;45.226;37.908;2023-07-30T02:33:32;18.15;79.04
74940;HTU21D;63505;45.226;37.908;2023-07-30T02:35:58;18.15;78.98
74940;HTU21D;63505;45.226;37.908;2023-07-30T02:38:24;18.12;79.10
74940;HTU21D;63505;45.226;37.908;2023-07-30T02:40:50;18.11;79.14
74940;HTU21D;63505;45.226;37.908;2023-07-30T02:43:16;18.10;79.12
74940;HTU21D;63505;45.226;37.908;2023-07-30T02:45:42;18.11;79.14
74940;HTU21D;63505;45.226;37.908;2023-07-30T02:48:07;18.12;79.19
74940;HTU21D;63505;45.226;37.908;2023-07-30T02:50:33;18.15;79.17
74940;HTU21D;63505;45.226;37.908;2023-07-30T02:52:59;18.21;79.12
74940;HTU21D;63505;45.226;37.908;2023-07-30T02:55:25;18.26;79.08
74940;HTU21D;63505;45.226;37.908;2023-07-30T02:57:51;18.32;79.04
74940;HTU21D;63505;45.226;37.908;2023-07-30T03:00:17;18.36;78.99
74940;HTU21D;63505;45.226;37.908;2023-07-30T03:02:43;18.41;78.97
74940;HTU21D;63505;45.226;37.908;2023-07-30T03:05:10;18.48;78.92
74940;HTU21D;63505;45.226;37.908;2023-07-30T03:07:36;18.54;78.87
74940;HTU21D;63505;45.226;37.908;2023-07-30T03:10:02;18.62;78.82
74940;HTU21D;63505;45.226;37.908;2023-07-30T03:12:28;18.67;78.75
74940;HTU21D;63505;45.226;37.908;2023-07-30T03:14:54;18.76;78.68
74940;HTU21D;63505;45.226;37.908;2023-07-30T03:17:20;18.82;78.66
74940;HTU21D;63505;45.226;37.908;2023-07-30T03:19:46;18.88;78.61
74940;HTU21D;63505;45.226;37.908;2023-07-30T03:22:12;18.96;78.56
74940;HTU21D;63505;45.226;37.908;2023-07-30T03:24:38;19.03;78.51
74940;HTU21D;63505;45.226;37.908;2023-07-30T03:27:04;19.13;78.47
74940;HTU21D;63505;45.226;37.908;2023-07-30T03:29:30;19.21;78.42
74940;HTU21D;63505;45.226;37.908;2023-07-30T03:31:56;19.30;78.37
74940;HTU21D;63505;45.226;37.908;2023-07-30T03:34:22;19.42;78.30
74940;HTU21D;63505;45.226;37.908;2023-07-30T03:36:48;19.52;78.26
74940;HTU21D;63505;45.226;37.908;2023-07-30T03:39:13;19.63;78.20
74940;HTU21D;63505;45.226;37.908;2023-07-30T03:41:39;19.75;78.13
74940;HTU21D;63505;45.226;37.908;2023-07-30T03:44:05;19.87;78.05
74940;HTU21D;63505;45.226;37.908;2023-07-30T03:46:31;19.99;78.01
74940;HTU21D;63505;45.226;37.908;2023-07-30T03:48:57;20.10;77.92
74940;HTU21D;63505;45.226;37.908;2023-07-30T03:51:23;20.20;77.83
74940;HTU21D;63505;45.226;37.908;2023-07-30T03:53:49;20.33;77.73
74940;HTU21D;63505;45.226;37.908;2023-07-30T03:56:15;20.44;77.63
74940;HTU21D;63505;45.226;37.908;2023-07-30T03:58:41;20.55;77.54
74940;HTU21D;63505;45.226;37.908;2023-07-30T04:01:07;20.70;77.47
74940;HTU21D;63505;45.226;37.908;2023-07-30T04:03:34;20.83;77.37
74940;HTU21D;63505;45.226;37.908;2023-07-30T04:06:00;20.94;77.30
74940;HTU21D;63505;45.226;37.908;2023-07-30T04:08:26;21.07;77.18
74940;HTU21D;63505;45.226;37.908;2023-07-30T04:10:52;21.21;77.09
74940;HTU21D;63505;45.226;37.908;2023-07-30T04:13:18;21.32;76.97
74940;HTU21D;63505;45.226;37.908;2023-07-30T04:15:43;21.43;76.89
74940;HTU21D;63505;45.226;37.908;2023-07-30T04:18:09;21.53;76.77
74940;HTU21D;63505;45.226;37.908;2023-07-30T04:20:35;21.66;76.76
74940;HTU21D;63505;45.226;37.908;2023-07-30T04:23:02;21.79;76.60
74940;HTU21D;63505;45.226;37.908;2023-07-30T04:25:28;21.92;76.48
74940;HTU21D;63505;45.226;37.908;2023-07-30T04:27:53;22.03;76.45
74940;HTU21D;63505;45.226;37.908;2023-07-30T04:30:19;22.19;76.32
74940;HTU21D;63505;45.226;37.908;2023-07-30T04:32:45;22.33;76.17
74940;HTU21D;63505;45.226;37.908;2023-07-30T04:35:11;22.49;76.00
74940;HTU21D;63505;45.226;37.908;2023-07-30T04:37:38;22.66;75.86
74940;HTU21D;63505;45.226;37.908;2023-07-30T04:40:05;22.83;75.70
74940;HTU21D;63505;45.226;37.908;2023-07-30T04:42:31;23.03;75.48
74940;HTU21D;63505;45.226;37.908;2023-07-30T04:44:57;23.24;75.25
74940;HTU21D;63505;45.226;37.908;2023-07-30T04:47:22;23.44;74.96
74940;HTU21D;63505;45.226;37.908;2023-07-30T04:49:49;23.65;74.80
74940;HTU21D;63505;45.226;37.908;2023-07-30T04:52:18;23.85;74.64
74940;HTU21D;63505;45.226;37.908;2023-07-30T04:54:44;24.12;74.22
74940;HTU21D;63505;45.226;37.908;2023-07-30T04:57:11;24.31;73.95
74940;HTU21D;63505;45.226;37.908;2023-07-30T04:59:37;24.49;73.76
74940;HTU21D;63505;45.226;37.908;2023-07-30T05:02:03;24.66;73.48
74940;HTU21D;63505;45.226;37.908;2023-07-30T05:04:29;24.87;73.25
74940;HTU21D;63505;45.226;37.908;2023-07-30T05:06:55;25.05;73.04
74940;HTU21D;63505;45.226;37.908;2023-07-30T05:09:21;25.22;72.80
74940;HTU21D;63505;45.226;37.908;2023-07-30T05:11:47;25.40;72.53
74940;HTU21D;63505;45.226;37.908;2023-07-30T05:14:12;25.56;72.32
74940;HTU21D;63505;45.226;37.908;2023-07-30T05:16:38;25.72;72.12
74940;HTU21D;63505;45.226;37.908;2023-07-30T05:19:04;25.84;71.82
74940;HTU21D;63505;45.226;37.908;2023-07-30T05:21:30;25.95;71.58
74940;HTU21D;63505;45.226;37.908;2023-07-30T05:23:56;26.03;71.42
74940;HTU21D;63505;45.226;37.908;2023-07-30T05:26:22;26.09;71.27
74940;HTU21D;63505;45.226;37.908;2023-07-30T05:28:48;26.18;71.06
74940;HTU21D;63505;45.226;37.908;2023-07-30T05:31:13;26.32;70.80
74940;HTU21D;63505;45.226;37.908;2023-07-30T05:33:39;26.41;70.55
74940;HTU21D;63505;45.226;37.908;2023-07-30T05:36:05;26.50;70.32
74940;HTU21D;63505;45.226;37.908;2023-07-30T05:38:32;26.56;70.18
74940;HTU21D;63505;45.226;37.908;2023-07-30T05:40:57;26.66;69.93
74940;HTU21D;63505;45.226;37.908;2023-07-30T05:43:23;26.79;69.66
74940;HTU21D;63505;45.226;37.908;2023-07-30T05:45:49;26.99;69.35
74940;HTU21D;63505;45.226;37.908;2023-07-30T05:48:15;27.04;69.13
74940;HTU21D;63505;45.226;37.908;2023-07-30T05:50:41;27.09;68.89
74940;HTU21D;63505;45.226;37.908;2023-07-30T05:53:07;27.17;68.67
74940;HTU21D;63505;45.226;37.908;2023-07-30T05:55:33;27.26;68.46
74940;HTU21D;63505;45.226;37.908;2023-07-30T05:57:58;27.43;68.05
74940;HTU21D;63505;45.226;37.908;2023-07-30T06:00:24;27.55;67.91
74940;HTU21D;63505;45.226;37.908;2023-07-30T06:02:50;27.68;67.73
74940;HTU21D;63505;45.226;37.908;2023-07-30T06:05:16;27.78;67.59
74940;HTU21D;63505;45.226;37.908;2023-07-30T06:07:42;27.85;67.35
74940;HTU21D;63505;45.226;37.908;2023-07-30T06:10:08;27.98;67.20
74940;HTU21D;63505;45.226;37.908;2023-07-30T06:12:34;28.08;66.93
74940;HTU21D;63505;45.226;37.908;2023-07-30T06:15:00;28.14;66.78
74940;HTU21D;63505;45.226;37.908;2023-07-30T06:17:25;28.20;66.54
74940;HTU21D;63505;45.226;37.908;2023-07-30T06:19:51;28.18;66.27
74940;HTU21D;63505;45.226;37.908;2023-07-30T06:22:17;28.16;66.04
74940;HTU21D;63505;45.226;37.908;2023-07-30T06:24:43;27.99;66.08
74940;HTU21D;63505;45.226;37.908;2023-07-30T06:27:09;27.93;66.11
74940;HTU21D;63505;45.226;37.908;2023-07-30T06:29:36;27.95;65.88
74940;HTU21D;63505;45.226;37.908;2023-07-30T06:32:02;28.04;65.53
74940;HTU21D;63505;45.226;37.908;2023-07-30T06:34:28;28.19;65.07
74940;HTU21D;63505;45.226;37.908;2023-07-30T06:36:54;28.31;64.66
74940;HTU21D;63505;45.226;37.908;2023-07-30T06:39:20;28.48;64.34
74940;HTU21D;63505;45.226;37.908;2023-07-30T06:41:47;28.63;63.84
74940;HTU21D;63505;45.226;37.908;2023-07-30T06:44:13;28.70;63.43
74940;HTU21D;63505;45.226;37.908;2023-07-30T06:46:39;28.73;63.22
74940;HTU21D;63505;45.226;37.908;2023-07-30T06:49:05;28.87;62.95
74940;HTU21D;63505;45.226;37.908;2023-07-30T06:51:30;29.05;62.59
74940;HTU21D;63505;45.226;37.908;2023-07-30T06:53:56;29.07;62.37
74940;HTU21D;63505;45.226;37.908;2023-07-30T06:56:22;28.94;62.29
74940;HTU21D;63505;45.226;37.908;2023-07-30T06:58:48;28.80;62.12
74940;HTU21D;63505;45.226;37.908;2023-07-30T07:01:14;28.57;62.31
74940;HTU21D;63505;45.226;37.908;2023-07-30T07:03:40;28.32;62.45
74940;HTU21D;63505;45.226;37.908;2023-07-30T07:06:06;28.13;62.28
74940;HTU21D;63505;45.226;37.908;2023-07-30T07:08:32;28.17;61.84
74940;HTU21D;63505;45.226;37.908;2023-07-30T07:10:58;28.26;61.59
74940;HTU21D;63505;45.226;37.908;2023-07-30T07:13:24;28.31;61.40
74940;HTU21D;63505;45.226;37.908;2023-07-30T07:15:49;28.54;60.96
74940;HTU21D;63505;45.226;37.908;2023-07-30T07:18:15;28.84;60.35
74940;HTU21D;63505;45.226;37.908;2023-07-30T07:20:41;29.21;59.47
74940;HTU21D;63505;45.226;37.908;2023-07-30T07:23:07;29.41;58.86
74940;HTU21D;63505;45.226;37.908;2023-07-30T07:25:33;29.41;58.70
74940;HTU21D;63505;45.226;37.908;2023-07-30T07:27:59;29.18;58.68
74940;HTU21D;63505;45.226;37.908;2023-07-30T07:30:24;28.94;58.83
74940;HTU21D;63505;45.226;37.908;2023-07-30T07:32:51;28.71;59.06
74940;HTU21D;63505;45.226;37.908;2023-07-30T07:35:21;28.70;59.03
74940;HTU21D;63505;45.226;37.908;2023-07-30T07:37:47;28.93;58.58
74940;HTU21D;63505;45.226;37.908;2023-07-30T07:40:13;29.19;58.11
74940;HTU21D;63505;45.226;37.908;2023-07-30T07:42:39;29.32;57.79
74940;HTU21D;63505;45.226;37.908;2023-07-30T07:45:06;29.26;57.68
74940;HTU21D;63505;45.226;37.908;2023-07-30T07:47:32;29.08;57.87
74940;HTU21D;63505;45.226;37.908;2023-07-30T07:49:58;28.91;58.06
74940;HTU21D;63505;45.226;37.908;2023-07-30T07:52:24;28.70;58.29
74940;HTU21D;63505;45.226;37.908;2023-07-30T07:54:50;28.53;58.48
74940;HTU21D;63505;45.226;37.908;2023-07-30T07:57:16;28.38;58.74
74940;HTU21D;63505;45.226;37.908;2023-07-30T07:59:42;28.23;59.04
74940;HTU21D;63505;45.226;37.908;2023-07-30T08:02:11;28.11;59.35
74940;HTU21D;63505;45.226;37.908;2023-07-30T08:04:37;28.12;59.48
74940;HTU21D;63505;45.226;37.908;2023-07-30T08:07:04;28.45;59.21
74940;HTU21D;63505;45.226;37.908;2023-07-30T08:09:30;28.84;58.70
74940;HTU21D;63505;45.226;37.908;2023-07-30T08:11:56;29.05;58.26
74940;HTU21D;63505;45.226;37.908;2023-07-30T08:14:22;29.26;57.64
74940;HTU21D;63505;45.226;37.908;2023-07-30T08:16:48;29.42;57.17
74940;HTU21D;63505;45.226;37.908;2023-07-30T08:19:14;29.56;56.80
74940;HTU21D;63505;45.226;37.908;2023-07-30T08:21:40;29.72;56.51
74940;HTU21D;63505;45.226;37.908;2023-07-30T08:24:06;29.75;56.25
74940;HTU21D;63505;45.226;37.908;2023-07-30T08:26:31;29.73;55.74
74940;HTU21D;63505;45.226;37.908;2023-07-30T08:28:57;29.64;55.58
74940;HTU21D;63505;45.226;37.908;2023-07-30T08:31:23;29.45;55.86
74940;HTU21D;63505;45.226;37.908;2023-07-30T08:33:49;29.44;55.64
74940;HTU21D;63505;45.226;37.908;2023-07-30T08:36:15;29.53;55.25
74940;HTU21D;63505;45.226;37.908;2023-07-30T08:38:41;29.47;55.16
74940;HTU21D;63505;45.226;37.908;2023-07-30T08:41:08;29.39;55.36
74940;HTU21D;63505;45.226;37.908;2023-07-30T08:43:34;29.54;55.26
74940;HTU21D;63505;45.226;37.908;2023-07-30T08:46:01;29.56;55.04
74940;HTU21D;63505;45.226;37.908;2023-07-30T08:48:27;29.39;55.04
74940;HTU21D;63505;45.226;37.908;2023-07-30T08:50:56;29.20;55.16
74940;HTU21D;63505;45.226;37.908;2023-07-30T08:53:24;29.19;55.26
74940;HTU21D;63505;45.226;37.908;2023-07-30T08:55:53;29.44;54.89
74940;HTU21D;63505;45.226;37.908;2023-07-30T08:58:21;29.64;54.28
74940;HTU21D;63505;45.226;37.908;2023-07-30T09:00:49;29.86;54.05
74940;HTU21D;63505;45.226;37.908;2023-07-30T09:03:16;30.13;53.91
74940;HTU21D;63505;45.226;37.908;2023-07-30T09:05:43;30.47;53.37
74940;HTU21D;63505;45.226;37.908;2023-07-30T09:08:09;30.71;52.85
74940;HTU21D;63505;45.226;37.908;2023-07-30T09:10:35;30.97;52.45
74940;HTU21D;63505;45.226;37.908;2023-07-30T09:13:02;31.12;52.18
74940;HTU21D;63505;45.226;37.908;2023-07-30T09:15:35;31.34;52.11
74940;HTU21D;63505;45.226;37.908;2023-07-30T09:18:06;31.55;51.79
74940;HTU21D;63505;45.226;37.908;2023-07-30T09:20:41;31.63;51.30
74940;HTU21D;63505;45.226;37.908;2023-07-30T09:23:08;31.64;51.24
74940;HTU21D;63505;45.226;37.908;2023-07-30T09:25:35;31.40;51.24
74940;HTU21D;63505;45.226;37.908;2023-07-30T09:28:01;31.30;51.25
74940;HTU21D;63505;45.226;37.908;2023-07-30T09:30:28;31.42;50.81
74940;HTU21D;63505;45.226;37.908;2023-07-30T09:32:56;31.46;50.58
74940;HTU21D;63505;45.226;37.908;2023-07-30T09:35:24;31.51;50.32
74940;HTU21D;63505;45.226;37.908;2023-07-30T09:37:50;31.54;50.24
74940;HTU21D;63505;45.226;37.908;2023-07-30T09:40:16;31.55;50.05
74940;HTU21D;63505;45.226;37.908;2023-07-30T09:42:45;31.61;49.76
74940;HTU21D;63505;45.226;37.908;2023-07-30T09:45:22;31.79;49.18
74940;HTU21D;63505;45.226;37.908;2023-07-30T09:47:50;31.87;49.12
74940;HTU21D;63505;45.226;37.908;2023-07-30T09:50:16;32.02;48.74
74940;HTU21D;63505;45.226;37.908;2023-07-30T09:52:43;32.19;48.44
74940;HTU21D;63505;45.226;37.908;2023-07-30T09:55:10;32.29;48.49
74940;HTU21D;63505;45.226;37.908;2023-07-30T09:57:37;32.37;48.55
74940;HTU21D;63505;45.226;37.908;2023-07-30T10:00:04;32.48;48.27
74940;HTU21D;63505;45.226;37.908;2023-07-30T10:02:37;32.41;48.12
74940;HTU21D;63505;45.226;37.908;2023-07-30T10:05:11;32.34;48.24
74940;HTU21D;63505;45.226;37.908;2023-07-30T10:07:51;32.40;48.04
74940;HTU21D;63505;45.226;37.908;2023-07-30T10:10:19;32.58;47.89
74940;HTU21D;63505;45.226;37.908;2023-07-30T10:12:47;32.79;47.18
74940;HTU21D;63505;45.226;37.908;2023-07-30T10:15:20;32.94;47.16
74940;HTU21D;63505;45.226;37.908;2023-07-30T10:17:50;33.04;47.28
74940;HTU21D;63505;45.226;37.908;2023-07-30T10:20:21;33.05;46.77
74940;HTU21D;63505;45.226;37.908;2023-07-30T10:22:51;32.98;46.86
74940;HTU21D;63505;45.226;37.908;2023-07-30T10:25:20;32.90;47.11
74940;HTU21D;63505;45.226;37.908;2023-07-30T10:27:50;32.85;47.31
74940;HTU21D;63505;45.226;37.908;2023-07-30T10:30:18;32.74;47.31
74940;HTU21D;63505;45.226;37.908;2023-07-30T10:33:01;32.67;47.34
74940;HTU21D;63505;45.226;37.908;2023-07-30T10:38:28;32.58;47.56
74940;HTU21D;63505;45.226;37.908;2023-07-30T10:41:05;32.63;47.73
74940;HTU21D;63505;45.226;37.908;2023-07-30T10:43:36;32.70;47.60
74940;HTU21D;63505;45.226;37.908;2023-07-30T10:46:04;32.76;47.43
74940;HTU21D;63505;45.226;37.908;2023-07-30T10:48:34;32.82;47.18
74940;HTU21D;63505;45.226;37.908;2023-07-30T10:51:02;32.91;47.05
74940;HTU21D;63505;45.226;37.908;2023-07-30T10:53:28;32.97;47.20
74940;HTU21D;63505;45.226;37.908;2023-07-30T10:55:57;32.99;47.18
74940;HTU21D;63505;45.226;37.908;2023-07-30T10:58:25;33.03;47.05
74940;HTU21D;63505;45.226;37.908;2023-07-30T11:00:53;32.99;46.76
74940;HTU21D;63505;45.226;37.908;2023-07-30T11:03:18;32.85;46.59
74940;HTU21D;63505;45.226;37.908;2023-07-30T11:05:47;32.75;46.35
74940;HTU21D;63505;45.226;37.908;2023-07-30T11:08:14;32.70;46.46
74940;HTU21D;63505;45.226;37.908;2023-07-30T11:10:45;32.59;46.68
74940;HTU21D;63505;45.226;37.908;2023-07-30T11:13:13;32.59;46.81
74940;HTU21D;63505;45.226;37.908;2023-07-30T11:15:43;32.60;46.73
74940;HTU21D;63505;45.226;37.908;2023-07-30T11:18:10;32.54;46.85
74940;HTU21D;63505;45.226;37.908;2023-07-30T11:20:37;32.57;47.02
74940;HTU21D;63505;45.226;37.908;2023-07-30T11:23:20;32.50;47.02
74940;HTU21D;63505;45.226;37.908;2023-07-30T11:25:50;32.22;47.34
74940;HTU21D;63505;45.226;37.908;2023-07-30T11:30:59;32.04;47.87
74940;HTU21D;63505;45.226;37.908;2023-07-30T11:33:27;32.14;47.76
74940;HTU21D;63505;45.226;37.908;2023-07-30T11:35:55;32.29;47.57
74940;HTU21D;63505;45.226;37.908;2023-07-30T11:38:25;32.49;47.39
74940;HTU21D;63505;45.226;37.908;2023-07-30T11:40:53;32.52;47.25
74940;HTU21D;63505;45.226;37.908;2023-07-30T11:43:21;32.55;47.01
74940;HTU21D;63505;45.226;37.908;2023-07-30T11:45:48;32.41;46.93
74940;HTU21D;63505;45.226;37.908;2023-07-30T11:48:15;32.33;46.98
74940;HTU21D;63505;45.226;37.908;2023-07-30T11:50:51;32.33;46.99
74940;HTU21D;63505;45.226;37.908;2023-07-30T11:53:18;32.41;47.03
74940;HTU21D;63505;45.226;37.908;2023-07-30T11:55:45;32.40;46.78
74940;HTU21D;63505;45.226;37.908;2023-07-30T11:58:12;32.37;46.69
74940;HTU21D;63505;45.226;37.908;2023-07-30T12:00:39;32.45;46.56
74940;HTU21D;63505;45.226;37.908;2023-07-30T12:03:10;32.62;46.48
74940;HTU21D;63505;45.226;37.908;2023-07-30T12:05:38;32.76;46.32
74940;HTU21D;63505;45.226;37.908;2023-07-30T12:08:06;32.73;46.38
74940;HTU21D;63505;45.226;37.908;2023-07-30T12:10:46;32.74;46.36
74940;HTU21D;63505;45.226;37.908;2023-07-30T12:13:19;32.75;46.51
74940;HTU21D;63505;45.226;37.908;2023-07-30T12:15:55;32.86;46.57
74940;HTU21D;63505;45.226;37.908;2023-07-30T12:18:22;32.98;46.19
74940;HTU21D;63505;45.226;37.908;2023-07-30T12:20:50;32.93;45.77
74940;HTU21D;63505;45.226;37.908;2023-07-30T12:23:17;32.70;46.00
74940;HTU21D;63505;45.226;37.908;2023-07-30T12:25:42;32.61;46.06
74940;HTU21D;63505;45.226;37.908;2023-07-30T12:28:09;32.60;45.82
74940;HTU21D;63505;45.226;37.908;2023-07-30T12:30:35;32.59;45.37
74940;HTU21D;63505;45.226;37.908;2023-07-30T12:33:03;32.59;45.02
74940;HTU21D;63505;45.226;37.908;2023-07-30T12:35:30;32.61;44.72
74940;HTU21D;63505;45.226;37.908;2023-07-30T12:37:56;32.59;44.48
74940;HTU21D;63505;45.226;37.908;2023-07-30T12:40:22;32.53;43.90
74940;HTU21D;63505;45.226;37.908;2023-07-30T12:42:48;32.47;43.55
74940;HTU21D;63505;45.226;37.908;2023-07-30T12:45:14;32.44;43.32
74940;HTU21D;63505;45.226;37.908;2023-07-30T12:47:41;32.42;43.19
74940;HTU21D;63505;45.226;37.908;2023-07-30T12:50:07;32.40;43.33
74940;HTU21D;63505;45.226;37.908;2023-07-30T12:52:34;32.40;43.55
74940;HTU21D;63505;45.226;37.908;2023-07-30T12:55:00;32.42;43.51
74940;HTU21D;63505;45.226;37.908;2023-07-30T12:57:26;32.43;43.61
74940;HTU21D;63505;45.226;37.908;2023-07-30T12:59:52;32.42;43.55
74940;HTU21D;63505;45.226;37.908;2023-07-30T13:02:18;32.34;43.61
74940;HTU21D;63505;45.226;37.908;2023-07-30T13:04:44;32.28;43.79
74940;HTU21D;63505;45.226;37.908;2023-07-30T13:07:10;32.22;43.71
74940;HTU21D;63505;45.226;37.908;2023-07-30T13:09:36;32.14;43.81
74940;HTU21D;63505;45.226;37.908;2023-07-30T13:12:02;32.13;43.87
74940;HTU21D;63505;45.226;37.908;2023-07-30T13:14:28;32.16;43.67
74940;HTU21D;63505;45.226;37.908;2023-07-30T13:16:54;32.16;43.95
74940;HTU21D;63505;45.226;37.908;2023-07-30T13:19:20;32.14;44.30
74940;HTU21D;63505;45.226;37.908;2023-07-30T13:21:46;32.09;44.47
74940;HTU21D;63505;45.226;37.908;2023-07-30T13:24:12;32.01;44.41
74940;HTU21D;63505;45.226;37.908;2023-07-30T13:26:38;31.97;44.50
74940;HTU21D;63505;45.226;37.908;2023-07-30T13:29:04;31.95;44.65
74940;HTU21D;63505;45.226;37.908;2023-07-30T13:31:30;31.99;44.69
74940;HTU21D;63505;45.226;37.908;2023-07-30T13:33:56;32.01;44.44
74940;HTU21D;63505;45.226;37.908;2023-07-30T13:36:22;31.96;44.32
74940;HTU21D;63505;45.226;37.908;2023-07-30T13:38:48;31.89;44.34
74940;HTU21D;63505;45.226;37.908;2023-07-30T13:41:14;31.82;44.25
74940;HTU21D;63505;45.226;37.908;2023-07-30T13:43:40;31.70;44.25
74940;HTU21D;63505;45.226;37.908;2023-07-30T13:46:06;31.55;44.15
74940;HTU21D;63505;45.226;37.908;2023-07-30T13:48:32;31.46;44.30
74940;HTU21D;63505;45.226;37.908;2023-07-30T13:50:58;31.44;44.39
74940;HTU21D;63505;45.226;37.908;2023-07-30T13:53:24;31.36;44.38
74940;HTU21D;63505;45.226;37.908;2023-07-30T13:55:49;31.22;44.48
74940;HTU21D;63505;45.226;37.908;2023-07-30T13:58:15;31.10;44.79
74940;HTU21D;63505;45.226;37.908;2023-07-30T14:00:41;31.10;44.84
74940;HTU21D;63505;45.226;37.908;2023-07-30T14:03:10;31.07;44.82
74940;HTU21D;63505;45.226;37.908;2023-07-30T14:05:38;30.99;44.77
74940;HTU21D;63505;45.226;37.908;2023-07-30T14:08:04;30.96;44.76
74940;HTU21D;63505;45.226;37.908;2023-07-30T14:10:30;30.95;44.80
74940;HTU21D;63505;45.226;37.908;2023-07-30T14:12:55;30.93;44.87
74940;HTU21D;63505;45.226;37.908;2023-07-30T14:15:21;30.87;44.95
74940;HTU21D;63505;45.226;37.908;2023-07-30T14:17:48;30.84;44.99
74940;HTU21D;63505;45.226;37.908;2023-07-30T14:20:14;30.83;45.09
74940;HTU21D;63505;45.226;37.908;2023-07-30T14:22:40;30.82;45.05
74940;HTU21D;63505;45.226;37.908;2023-07-30T14:25:06;30.77;45.08
74940;HTU21D;63505;45.226;37.908;2023-07-30T14:27:31;30.69;45.24
74940;HTU21D;63505;45.226;37.908;2023-07-30T14:29:57;30.69;45.42
74940;HTU21D;63505;45.226;37.908;2023-07-30T14:32:23;30.67;45.51
74940;HTU21D;63505;45.226;37.908;2023-07-30T14:34:49;30.67;45.57
74940;HTU21D;63505;45.226;37.908;2023-07-30T14:37:15;30.66;45.67
74940;HTU21D;63505;45.226;37.908;2023-07-30T14:39:41;30.62;45.70
74940;HTU21D;63505;45.226;37.908;2023-07-30T14:42:07;30.55;45.74
74940;HTU21D;63505;45.226;37.908;2023-07-30T14:44:34;30.47;45.86
74940;HTU21D;63505;45.226;37.908;2023-07-30T14:47:00;30.37;45.93
74940;HTU21D;63505;45.226;37.908;2023-07-30T14:49:29;30.27;45.99
74940;HTU21D;63505;45.226;37.908;2023-07-30T14:51:54;30.20;46.11
74940;HTU21D;63505;45.226;37.908;2023-07-30T14:54:21;30.11;46.33
74940;HTU21D;63505;45.226;37.908;2023-07-30T14:56:46;30.07;46.53
74940;HTU21D;63505;45.226;37.908;2023-07-30T14:59:12;30.05;46.76
74940;HTU21D;63505;45.226;37.908;2023-07-30T15:01:38;30.05;46.92
74940;HTU21D;63505;45.226;37.908;2023-07-30T15:04:04;30.02;46.96
74940;HTU21D;63505;45.226;37.908;2023-07-30T15:06:30;29.96;47.01
74940;HTU21D;63505;45.226;37.908;2023-07-30T15:08:56;29.93;47.03